sensor_id;sensor_type;location;lat;lon;timestamp;temperature;humidity
8684;DHT22;4379;59.744;18.206;2022-08-03T00:02:18;15.30;99.90
8684;DHT22;4379;59.744;18.206;2022-08-03T00:04:46;15.20;99.90
8684;DHT22;4379;59.744;18.206;2022-08-03T00:07:14;15.20;99.90
8684;DHT22;4379;59.744;18.206;2022-08-03T00:09:44;15.30;99.90
8684;DHT22;4379;59.744;18.206;2022-08-03T00:12:11;15.30;99.90
8684;DHT22;4379;59.744;18.206;2022-08-03T00:14:39;15.30;99.90
8684;DHT22;4379;59.744;18.206;2022-08-03T00:17:07;15.30;99.90
8684;DHT22;4379;59.744;18.206;2022-08-03T00:19:35;15.40;99.90
8684;DHT22;4379;59.744;18.206;2022-08-03T00:22:02;15.30;99.90
8684;DHT22;4379;59.744;18.206;2022-08-03T00:24:29;15.30;99.90
8684;DHT22;4379;59.744;18.206;2022-08-03T00:26:57;15.30;99.90
8684;DHT22;4379;59.744;18.206;2022-08-03T00:29:24;15.30;99.90
8684;DHT22;4379;59.744;18.206;2022-08-03T00:31:52;15.20;99.90
8684;DHT22;4379;59.744;18.206;2022-08-03T00:34:26;15.20;99.90
8684;DHT22;4379;59.744;18.206;2022-08-03T00:37:14;15.00;99.90
8684;DHT22;4379;59.744;18.206;2022-08-03T00:39:42;14.90;99.90
8684;DHT22;4379;59.744;18.206;2022-08-03T00:42:13;14.80;99.90
8684;DHT22;4379;59.744;18.206;2022-08-03T00:44:42;14.80;99.90
8684;DHT22;4379;59.744;18.206;2022-08-03T00:47:10;14.80;99.90
8684;DHT22;4379;59.744;18.206;2022-08-03T00:49:39;14.80;99.90
8684;DHT22;4379;59.744;18.206;2022-08-03T00:52:08;14.90;99.90
8684;DHT22;4379;59.744;18.206;2022-08-03T00:54:39;14.90;99.90
8684;DHT22;4379;59.744;18.206;2022-08-03T00:57:07;14.80;99.90
8684;DHT22;4379;59.744;18.206;2022-08-03T00:59:34;14.80;99.90
8684;DHT22;4379;59.744;18.206;2022-08-03T01:02:04;14.80;99.90
8684;DHT22;4379;59.744;18.206;2022-08-03T01:04:32;14.70;99.90
8684;DHT22;4379;59.744;18.206;2022-08-03T01:07:09;14.70;99.90
8684;DHT22;4379;59.744;18.206;2022-08-03T01:10:05;14.60;99.90
8684;DHT22;4379;59.744;18.206;2022-08-03T01:12:46;14.40;99.90
8684;DHT22;4379;59.744;18.206;2022-08-03T01:18:28;14.20;99.90
8684;DHT22;4379;59.744;18.206;2022-08-03T01:20:50;14.00;99.90
8684;DHT22;4379;59.744;18.206;2022-08-03T01:31:50;13.80;99.90
8684;DHT22;4379;59.744;18.206;2022-08-03T01:34:46;13.80;99.90
8684;DHT22;4379;59.744;18.206;2022-08-03T01:37:27;13.70;99.90
8684;DHT22;4379;59.744;18.206;2022-08-03T01:39:57;13.80;99.90
8684;DHT22;4379;59.744;18.206;2022-08-03T01:42:29;13.80;99.90
8684;DHT22;4379;59.744;18.206;2022-08-03T01:44:58;13.90;99.90
8684;DHT22;4379;59.744;18.206;2022-08-03T01:47:27;14.00;99.90
8684;DHT22;4379;59.744;18.206;2022-08-03T01:49:56;14.10;99.90
8684;DHT22;4379;59.744;18.206;2022-08-03T01:52:25;14.10;99.90
8684;DHT22;4379;59.744;18.206;2022-08-03T01:54:53;14.20;99.90
8684;DHT22;4379;59.744;18.206;2022-08-03T01:57:22;14.10;99.90
8684;DHT22;4379;59.744;18.206;2022-08-03T01:59:51;14.20;99.90
8684;DHT22;4379;59.744;18.206;2022-08-03T02:02:22;14.20;99.90
8684;DHT22;4379;59.744;18.206;2022-08-03T02:05:02;14.30;99.90
8684;DHT22;4379;59.744;18.206;2022-08-03T02:07:32;14.40;99.90
8684;DHT22;4379;59.744;18.206;2022-08-03T02:10:02;14.40;99.90
8684;DHT22;4379;59.744;18.206;2022-08-03T02:12:31;14.40;99.90
8684;DHT22;4379;59.744;18.206;2022-08-03T02:15:00;14.50;99.90
8684;DHT22;4379;59.744;18.206;2022-08-03T02:17:29;14.50;99.90
8684;DHT22;4379;59.744;18.206;2022-08-03T02:20:09;14.40;99.90
8684;DHT22;4379;59.744;18.206;2022-08-03T02:22:42;14.50;99.90
8684;DHT22;4379;59.744;18.206;2022-08-03T02:25:12;14.50;99.90
8684;DHT22;4379;59.744;18.206;2022-08-03T02:27:45;14.50;99.90
8684;DHT22;4379;59.744;18.206;2022-08-03T02:30:15;14.50;99.90
8684;DHT22;4379;59.744;18.206;2022-08-03T02:32:52;14.50;99.90
8684;DHT22;4379;59.744;18.206;2022-08-03T02:35:23;14.60;99.90
8684;DHT22;4379;59.744;18.206;2022-08-03T02:37:53;14.60;99.90
8684;DHT22;4379;59.744;18.206;2022-08-03T02:40:23;14.60;99.90
8684;DHT22;4379;59.744;18.206;2022-08-03T02:42:56;14.50;99.90
8684;DHT22;4379;59.744;18.206;2022-08-03T02:45:26;14.60;99.90
8684;DHT22;4379;59.744;18.206;2022-08-03T02:47:58;14.60;99.90
8684;DHT22;4379;59.744;18.206;2022-08-03T02:50:28;14.50;99.90
8684;DHT22;4379;59.744;18.206;2022-08-03T02:52:57;14.50;99.90
8684;DHT22;4379;59.744;18.206;2022-08-03T02:55:26;14.50;99.90
8684;DHT22;4379;59.744;18.206;2022-08-03T02:57:56;14.50;99.90
8684;DHT22;4379;59.744;18.206;2022-08-03T03:00:29;14.60;99.90
8684;DHT22;4379;59.744;18.206;2022-08-03T03:02:59;14.60;99.90
8684;DHT22;4379;59.744;18.206;2022-08-03T03:05:28;14.50;99.90
8684;DHT22;4379;59.744;18.206;2022-08-03T03:08:18;14.50;99.90
8684;DHT22;4379;59.744;18.206;2022-08-03T03:10:58;14.50;99.90
8684;DHT22;4379;59.744;18.206;2022-08-03T03:13:27;14.50;99.90
8684;DHT22;4379;59.744;18.206;2022-08-03T03:15:58;14.40;99.90
8684;DHT22;4379;59.744;18.206;2022-08-03T03:18:28;14.40;99.90
8684;DHT22;4379;59.744;18.206;2022-08-03T03:20:56;14.40;99.90
8684;DHT22;4379;59.744;18.206;2022-08-03T03:23:25;14.30;99.90
8684;DHT22;4379;59.744;18.206;2022-08-03T03:25:55;14.30;99.90
8684;DHT22;4379;59.744;18.206;2022-08-03T03:28:24;14.30;99.90
8684;DHT22;4379;59.744;18.206;2022-08-03T03:30:52;14.30;99.90
8684;DHT22;4379;59.744;18.206;2022-08-03T03:33:21;14.30;99.90
8684;DHT22;4379;59.744;18.206;2022-08-03T03:35:49;14.20;99.90
8684;DHT22;4379;59.744;18.206;2022-08-03T03:38:18;14.20;99.90
8684;DHT22;4379;59.744;18.206;2022-08-03T03:40:47;14.10;99.90
8684;DHT22;4379;59.744;18.206;2022-08-03T03:43:15;14.10;99.90
8684;DHT22;4379;59.744;18.206;2022-08-03T03:45:44;14.10;99.90
8684;DHT22;4379;59.744;18.206;2022-08-03T03:48:13;14.10;99.90
8684;DHT22;4379;59.744;18.206;2022-08-03T03:50:42;14.10;99.90
8684;DHT22;4379;59.744;18.206;2022-08-03T03:53:11;14.00;99.90
8684;DHT22;4379;59.744;18.206;2022-08-03T03:55:39;14.00;99.90
8684;DHT22;4379;59.744;18.206;2022-08-03T03:58:27;14.00;99.90
8684;DHT22;4379;59.744;18.206;2022-08-03T04:00:54;14.00;99.90
8684;DHT22;4379;59.744;18.206;2022-08-03T04:03:22;14.10;99.90
8684;DHT22;4379;59.744;18.206;2022-08-03T04:05:49;14.20;99.90
8684;DHT22;4379;59.744;18.206;2022-08-03T04:08:36;14.20;99.90
8684;DHT22;4379;59.744;18.206;2022-08-03T04:11:26;14.40;99.90
8684;DHT22;4379;59.744;18.206;2022-08-03T04:14:05;14.50;99.90
8684;DHT22;4379;59.744;18.206;2022-08-03T04:16:36;14.50;99.90
8684;DHT22;4379;59.744;18.206;2022-08-03T04:19:13;14.50;99.90
8684;DHT22;4379;59.744;18.206;2022-08-03T04:21:50;14.60;99.90
8684;DHT22;4379;59.744;18.206;2022-08-03T04:24:24;14.70;99.90
8684;DHT22;4379;59.744;18.206;2022-08-03T04:26:53;15.00;99.90
8684;DHT22;4379;59.744;18.206;2022-08-03T04:29:23;15.00;99.90
8684;DHT22;4379;59.744;18.206;2022-08-03T04:31:53;15.10;99.90
8684;DHT22;4379;59.744;18.206;2022-08-03T04:34:21;15.20;99.90
8684;DHT22;4379;59.744;18.206;2022-08-03T04:36:52;15.50;99.90
8684;DHT22;4379;59.744;18.206;2022-08-03T04:39:23;15.80;99.90
8684;DHT22;4379;59.744;18.206;2022-08-03T04:41:56;16.10;99.90
8684;DHT22;4379;59.744;18.206;2022-08-03T04:44:36;16.30;99.90
8684;DHT22;4379;59.744;18.206;2022-08-03T04:47:05;16.60;99.90
8684;DHT22;4379;59.744;18.206;2022-08-03T04:49:35;16.50;99.90
8684;DHT22;4379;59.744;18.206;2022-08-03T04:52:04;16.50;99.90
8684;DHT22;4379;59.744;18.206;2022-08-03T04:54:43;16.70;99.90
8684;DHT22;4379;59.744;18.206;2022-08-03T04:57:17;16.60;99.90
8684;DHT22;4379;59.744;18.206;2022-08-03T04:59:50;17.30;99.90
8684;DHT22;4379;59.744;18.206;2022-08-03T05:02:30;18.00;99.90
8684;DHT22;4379;59.744;18.206;2022-08-03T05:04:58;18.20;99.90
8684;DHT22;4379;59.744;18.206;2022-08-03T05:07:26;18.20;99.90
8684;DHT22;4379;59.744;18.206;2022-08-03T05:10:06;18.50;99.90
8684;DHT22;4379;59.744;18.206;2022-08-03T05:12:43;18.30;99.90
8684;DHT22;4379;59.744;18.206;2022-08-03T05:15:11;18.60;99.90
8684;DHT22;4379;59.744;18.206;2022-08-03T05:17:39;18.80;99.90
8684;DHT22;4379;59.744;18.206;2022-08-03T05:20:07;19.30;99.90
8684;DHT22;4379;59.744;18.206;2022-08-03T05:22:34;19.20;99.90
8684;DHT22;4379;59.744;18.206;2022-08-03T05:25:03;19.10;99.90
8684;DHT22;4379;59.744;18.206;2022-08-03T05:27:30;18.70;99.90
8684;DHT22;4379;59.744;18.206;2022-08-03T05:29:58;18.40;99.90
8684;DHT22;4379;59.744;18.206;2022-08-03T05:32:46;18.40;99.90
8684;DHT22;4379;59.744;18.206;2022-08-03T05:35:31;18.20;99.90
8684;DHT22;4379;59.744;18.206;2022-08-03T05:38:21;18.50;99.90
8684;DHT22;4379;59.744;18.206;2022-08-03T05:40:59;18.60;99.90
8684;DHT22;4379;59.744;18.206;2022-08-03T05:43:47;19.10;99.90
8684;DHT22;4379;59.744;18.206;2022-08-03T05:46:14;19.30;99.90
8684;DHT22;4379;59.744;18.206;2022-08-03T05:48:42;20.70;99.90
8684;DHT22;4379;59.744;18.206;2022-08-03T05:51:09;23.30;99.90
8684;DHT22;4379;59.744;18.206;2022-08-03T05:53:40;25.90;99.90
8684;DHT22;4379;59.744;18.206;2022-08-03T05:56:09;26.50;99.90
8684;DHT22;4379;59.744;18.206;2022-08-03T05:58:43;27.90;99.90
8684;DHT22;4379;59.744;18.206;2022-08-03T06:01:11;29.40;99.90
8684;DHT22;4379;59.744;18.206;2022-08-03T06:03:39;30.00;99.90
8684;DHT22;4379;59.744;18.206;2022-08-03T06:06:07;28.10;99.90
8684;DHT22;4379;59.744;18.206;2022-08-03T06:08:35;29.50;99.90
8684;DHT22;4379;59.744;18.206;2022-08-03T06:11:02;30.80;99.90
8684;DHT22;4379;59.744;18.206;2022-08-03T06:13:30;29.30;99.90
8684;DHT22;4379;59.744;18.206;2022-08-03T06:15:58;27.80;99.90
8684;DHT22;4379;59.744;18.206;2022-08-03T06:18:25;25.50;99.90
8684;DHT22;4379;59.744;18.206;2022-08-03T06:20:53;23.30;99.90
8684;DHT22;4379;59.744;18.206;2022-08-03T06:23:21;22.20;99.90
8684;DHT22;4379;59.744;18.206;2022-08-03T06:26:08;21.20;99.90
8684;DHT22;4379;59.744;18.206;2022-08-03T06:28:39;20.70;99.90
8684;DHT22;4379;59.744;18.206;2022-08-03T06:31:21;20.20;99.90
8684;DHT22;4379;59.744;18.206;2022-08-03T06:33:50;20.00;99.90
8684;DHT22;4379;59.744;18.206;2022-08-03T06:36:38;19.70;99.90
8684;DHT22;4379;59.744;18.206;2022-08-03T06:39:06;20.10;99.90
8684;DHT22;4379;59.744;18.206;2022-08-03T06:41:34;19.70;99.90
8684;DHT22;4379;59.744;18.206;2022-08-03T06:44:11;20.00;99.90
8684;DHT22;4379;59.744;18.206;2022-08-03T06:46:39;20.10;99.90
8684;DHT22;4379;59.744;18.206;2022-08-03T06:49:08;19.70;99.90
8684;DHT22;4379;59.744;18.206;2022-08-03T06:51:35;19.40;99.90
8684;DHT22;4379;59.744;18.206;2022-08-03T06:54:23;19.60;99.90
8684;DHT22;4379;59.744;18.206;2022-08-03T06:57:00;19.90;99.90
8684;DHT22;4379;59.744;18.206;2022-08-03T06:59:29;20.60;99.90
8684;DHT22;4379;59.744;18.206;2022-08-03T07:02:16;20.60;99.90
8684;DHT22;4379;59.744;18.206;2022-08-03T07:04:48;21.00;99.90
8684;DHT22;4379;59.744;18.206;2022-08-03T07:07:15;21.20;99.90
8684;DHT22;4379;59.744;18.206;2022-08-03T07:09:43;21.20;99.90
8684;DHT22;4379;59.744;18.206;2022-08-03T07:12:25;21.00;99.90
8684;DHT22;4379;59.744;18.206;2022-08-03T07:14:53;20.10;99.90
8684;DHT22;4379;59.744;18.206;2022-08-03T07:17:27;19.90;99.90
8684;DHT22;4379;59.744;18.206;2022-08-03T07:19:55;19.60;99.90
8684;DHT22;4379;59.744;18.206;2022-08-03T07:22:26;19.70;99.90
8684;DHT22;4379;59.744;18.206;2022-08-03T07:25:02;19.70;99.90
8684;DHT22;4379;59.744;18.206;2022-08-03T07:27:31;20.30;99.90
8684;DHT22;4379;59.744;18.206;2022-08-03T07:29:59;21.20;99.90
8684;DHT22;4379;59.744;18.206;2022-08-03T07:32:27;22.40;99.90
8684;DHT22;4379;59.744;18.206;2022-08-03T07:34:57;22.90;99.90
8684;DHT22;4379;59.744;18.206;2022-08-03T07:37:28;22.80;99.90
8684;DHT22;4379;59.744;18.206;2022-08-03T07:39:56;22.90;99.90
8684;DHT22;4379;59.744;18.206;2022-08-03T07:42:24;22.70;99.90
8684;DHT22;4379;59.744;18.206;2022-08-03T07:44:52;22.20;99.90
8684;DHT22;4379;59.744;18.206;2022-08-03T07:47:22;22.50;99.90
8684;DHT22;4379;59.744;18.206;2022-08-03T07:49:50;22.70;99.90
8684;DHT22;4379;59.744;18.206;2022-08-03T07:52:18;22.10;99.90
8684;DHT22;4379;59.744;18.206;2022-08-03T07:55:05;21.60;99.90
8684;DHT22;4379;59.744;18.206;2022-08-03T07:57:33;22.10;99.90
8684;DHT22;4379;59.744;18.206;2022-08-03T08:00:02;21.80;99.90
8684;DHT22;4379;59.744;18.206;2022-08-03T08:02:30;22.00;99.90
8684;DHT22;4379;59.744;18.206;2022-08-03T08:04:58;22.00;99.90
8684;DHT22;4379;59.744;18.206;2022-08-03T08:07:31;22.50;99.90
8684;DHT22;4379;59.744;18.206;2022-08-03T08:09:58;22.20;99.90
8684;DHT22;4379;59.744;18.206;2022-08-03T08:12:26;21.90;99.90
8684;DHT22;4379;59.744;18.206;2022-08-03T08:14:53;21.90;99.90
8684;DHT22;4379;59.744;18.206;2022-08-03T08:17:21;21.90;99.90
8684;DHT22;4379;59.744;18.206;2022-08-03T08:19:48;22.00;99.90
8684;DHT22;4379;59.744;18.206;2022-08-03T08:22:19;22.20;99.90
8684;DHT22;4379;59.744;18.206;2022-08-03T08:24:57;22.60;99.90
8684;DHT22;4379;59.744;18.206;2022-08-03T08:27:27;23.10;99.90
8684;DHT22;4379;59.744;18.206;2022-08-03T08:30:17;23.30;99.90
8684;DHT22;4379;59.744;18.206;2022-08-03T08:32:48;23.70;99.90
8684;DHT22;4379;59.744;18.206;2022-08-03T08:35:16;23.50;99.90
8684;DHT22;4379;59.744;18.206;2022-08-03T08:37:45;23.60;99.90
8684;DHT22;4379;59.744;18.206;2022-08-03T08:40:20;24.30;99.90
8684;DHT22;4379;59.744;18.206;2022-08-03T08:42:49;24.50;99.90
8684;DHT22;4379;59.744;18.206;2022-08-03T08:45:25;24.20;99.90
8684;DHT22;4379;59.744;18.206;2022-08-03T08:47:55;24.30;99.90
8684;DHT22;4379;59.744;18.206;2022-08-03T08:50:28;25.40;99.90
8684;DHT22;4379;59.744;18.206;2022-08-03T08:52:59;25.60;99.90
8684;DHT22;4379;59.744;18.206;2022-08-03T08:55:28;24.80;99.90
8684;DHT22;4379;59.744;18.206;2022-08-03T08:58:18;24.30;99.90
8684;DHT22;4379;59.744;18.206;2022-08-03T09:00:47;24.70;99.90
8684;DHT22;4379;59.744;18.206;2022-08-03T09:03:15;24.90;99.90
8684;DHT22;4379;59.744;18.206;2022-08-03T09:05:58;25.00;99.90
8684;DHT22;4379;59.744;18.206;2022-08-03T09:08:27;24.80;99.90
8684;DHT22;4379;59.744;18.206;2022-08-03T09:10:55;25.60;99.90
8684;DHT22;4379;59.744;18.206;2022-08-03T09:13:22;25.70;99.90
8684;DHT22;4379;59.744;18.206;2022-08-03T09:16:09;25.10;99.90
8684;DHT22;4379;59.744;18.206;2022-08-03T09:18:38;24.50;99.90
8684;DHT22;4379;59.744;18.206;2022-08-03T09:21:14;24.50;99.90
8684;DHT22;4379;59.744;18.206;2022-08-03T09:24:02;25.00;99.90
8684;DHT22;4379;59.744;18.206;2022-08-03T09:26:34;24.50;99.90
8684;DHT22;4379;59.744;18.206;2022-08-03T09:29:05;24.20;99.90
8684;DHT22;4379;59.744;18.206;2022-08-03T09:31:44;24.00;99.90
8684;DHT22;4379;59.744;18.206;2022-08-03T09:34:16;24.50;99.90
8684;DHT22;4379;59.744;18.206;2022-08-03T09:36:45;25.00;99.90
8684;DHT22;4379;59.744;18.206;2022-08-03T09:39:26;25.00;99.90
8684;DHT22;4379;59.744;18.206;2022-08-03T09:42:12;25.20;99.90
8684;DHT22;4379;59.744;18.206;2022-08-03T09:44:44;24.80;99.90
8684;DHT22;4379;59.744;18.206;2022-08-03T09:47:13;24.50;99.90
8684;DHT22;4379;59.744;18.206;2022-08-03T09:49:57;24.50;99.90
8684;DHT22;4379;59.744;18.206;2022-08-03T09:52:35;25.30;99.90
8684;DHT22;4379;59.744;18.206;2022-08-03T09:55:17;26.20;99.90
8684;DHT22;4379;59.744;18.206;2022-08-03T09:58:08;26.00;99.90
8684;DHT22;4379;59.744;18.206;2022-08-03T10:01:06;26.40;99.90
8684;DHT22;4379;59.744;18.206;2022-08-03T10:03:57;25.80;99.90
8684;DHT22;4379;59.744;18.206;2022-08-03T10:06:30;25.60;99.90
8684;DHT22;4379;59.744;18.206;2022-08-03T10:09:13;25.70;99.90
8684;DHT22;4379;59.744;18.206;2022-08-03T10:11:42;25.40;99.90
8684;DHT22;4379;59.744;18.206;2022-08-03T10:14:11;25.80;99.90
8684;DHT22;4379;59.744;18.206;2022-08-03T10:16:46;26.20;99.90
8684;DHT22;4379;59.744;18.206;2022-08-03T10:19:14;27.00;99.90
8684;DHT22;4379;59.744;18.206;2022-08-03T10:22:39;27.60;99.90
8684;DHT22;4379;59.744;18.206;2022-08-03T10:25:06;26.60;99.90
8684;DHT22;4379;59.744;18.206;2022-08-03T10:27:40;26.40;99.90
8684;DHT22;4379;59.744;18.206;2022-08-03T10:30:10;26.00;99.90
8684;DHT22;4379;59.744;18.206;2022-08-03T10:32:51;25.70;99.90
8684;DHT22;4379;59.744;18.206;2022-08-03T10:35:20;25.20;99.90
8684;DHT22;4379;59.744;18.206;2022-08-03T10:40:29;26.20;99.90
8684;DHT22;4379;59.744;18.206;2022-08-03T10:46:18;26.00;99.90
8684;DHT22;4379;59.744;18.206;2022-08-03T10:48:48;26.10;99.90
8684;DHT22;4379;59.744;18.206;2022-08-03T10:51:18;26.40;99.90
8684;DHT22;4379;59.744;18.206;2022-08-03T10:53:46;25.90;99.90
8684;DHT22;4379;59.744;18.206;2022-08-03T10:56:50;26.00;99.90
8684;DHT22;4379;59.744;18.206;2022-08-03T10:59:57;25.90;99.90
8684;DHT22;4379;59.744;18.206;2022-08-03T11:05:29;25.10;99.90
8684;DHT22;4379;59.744;18.206;2022-08-03T11:10:47;25.50;99.90
8684;DHT22;4379;59.744;18.206;2022-08-03T11:13:20;25.60;99.90
8684;DHT22;4379;59.744;18.206;2022-08-03T11:15:50;25.30;99.90
8684;DHT22;4379;59.744;18.206;2022-08-03T11:18:17;25.50;99.90
8684;DHT22;4379;59.744;18.206;2022-08-03T11:23:15;26.40;99.90
8684;DHT22;4379;59.744;18.206;2022-08-03T11:28:36;26.50;99.90
8684;DHT22;4379;59.744;18.206;2022-08-03T11:34:17;26.70;99.90
8684;DHT22;4379;59.744;18.206;2022-08-03T11:37:22;26.90;99.90
8684;DHT22;4379;59.744;18.206;2022-08-03T11:39:57;26.80;99.90
8684;DHT22;4379;59.744;18.206;2022-08-03T11:44:55;25.70;99.90
8684;DHT22;4379;59.744;18.206;2022-08-03T11:47:24;25.30;99.90
8684;DHT22;4379;59.744;18.206;2022-08-03T11:49:57;25.50;99.90
8684;DHT22;4379;59.744;18.206;2022-08-03T11:52:27;25.60;99.90
8684;DHT22;4379;59.744;18.206;2022-08-03T11:55:00;25.70;99.90
8684;DHT22;4379;59.744;18.206;2022-08-03T11:57:33;26.00;99.90
8684;DHT22;4379;59.744;18.206;2022-08-03T12:00:22;25.90;99.90
8684;DHT22;4379;59.744;18.206;2022-08-03T12:03:11;25.70;99.90
8684;DHT22;4379;59.744;18.206;2022-08-03T12:05:51;25.10;99.90
8684;DHT22;4379;59.744;18.206;2022-08-03T12:08:29;25.40;99.90
8684;DHT22;4379;59.744;18.206;2022-08-03T12:10:59;25.30;99.90
8684;DHT22;4379;59.744;18.206;2022-08-03T12:13:38;24.90;99.90
8684;DHT22;4379;59.744;18.206;2022-08-03T12:16:26;25.10;99.90
8684;DHT22;4379;59.744;18.206;2022-08-03T12:18:59;25.50;99.90
8684;DHT22;4379;59.744;18.206;2022-08-03T12:21:30;25.80;99.90
8684;DHT22;4379;59.744;18.206;2022-08-03T12:23:59;25.70;99.90
8684;DHT22;4379;59.744;18.206;2022-08-03T12:26:47;25.50;99.90
8684;DHT22;4379;59.744;18.206;2022-08-03T12:29:53;25.30;99.90
8684;DHT22;4379;59.744;18.206;2022-08-03T12:32:25;24.90;99.90
8684;DHT22;4379;59.744;18.206;2022-08-03T12:34:54;24.50;99.90
8684;DHT22;4379;59.744;18.206;2022-08-03T12:37:27;24.60;99.90
8684;DHT22;4379;59.744;18.206;2022-08-03T12:39:58;24.80;99.90
8684;DHT22;4379;59.744;18.206;2022-08-03T12:42:37;25.10;99.90
8684;DHT22;4379;59.744;18.206;2022-08-03T12:45:26;25.10;99.90
8684;DHT22;4379;59.744;18.206;2022-08-03T12:47:59;24.50;99.90
8684;DHT22;4379;59.744;18.206;2022-08-03T12:50:32;23.90;99.90
8684;DHT22;4379;59.744;18.206;2022-08-03T12:53:03;24.10;99.90
8684;DHT22;4379;59.744;18.206;2022-08-03T12:55:34;24.00;99.90
8684;DHT22;4379;59.744;18.206;2022-08-03T12:58:33;23.70;99.90
8684;DHT22;4379;59.744;18.206;2022-08-03T13:01:07;23.90;99.90
8684;DHT22;4379;59.744;18.206;2022-08-03T13:03:43;24.00;99.90
8684;DHT22;4379;59.744;18.206;2022-08-03T13:06:23;23.90;99.90
8684;DHT22;4379;59.744;18.206;2022-08-03T13:09:07;23.90;99.90
8684;DHT22;4379;59.744;18.206;2022-08-03T13:11:34;23.90;99.90
8684;DHT22;4379;59.744;18.206;2022-08-03T13:14:22;24.10;99.90
8684;DHT22;4379;59.744;18.206;2022-08-03T13:16:50;24.20;99.90
8684;DHT22;4379;59.744;18.206;2022-08-03T13:19:17;23.90;99.90
8684;DHT22;4379;59.744;18.206;2022-08-03T13:21:45;23.70;99.90
8684;DHT22;4379;59.744;18.206;2022-08-03T13:24:31;23.70;99.90
8684;DHT22;4379;59.744;18.206;2022-08-03T13:26:59;23.60;99.90
8684;DHT22;4379;59.744;18.206;2022-08-03T13:29:48;23.40;99.90
8684;DHT22;4379;59.744;18.206;2022-08-03T13:32:15;23.40;99.90
8684;DHT22;4379;59.744;18.206;2022-08-03T13:34:43;23.40;99.90
8684;DHT22;4379;59.744;18.206;2022-08-03T13:37:11;23.50;99.90
8684;DHT22;4379;59.744;18.206;2022-08-03T13:39:39;23.40;99.90
8684;DHT22;4379;59.744;18.206;2022-08-03T13:42:25;23.80;99.90
8684;DHT22;4379;59.744;18.206;2022-08-03T13:44:52;23.80;99.90
8684;DHT22;4379;59.744;18.206;2022-08-03T13:47:19;24.00;99.90
8684;DHT22;4379;59.744;18.206;2022-08-03T13:49:47;24.00;99.90
8684;DHT22;4379;59.744;18.206;2022-08-03T13:52:26;23.90;99.90
8684;DHT22;4379;59.744;18.206;2022-08-03T13:54:54;24.10;99.90
8684;DHT22;4379;59.744;18.206;2022-08-03T13:57:21;24.10;99.90
8684;DHT22;4379;59.744;18.206;2022-08-03T14:00:09;24.20;99.90
8684;DHT22;4379;59.744;18.206;2022-08-03T14:02:37;24.60;99.90
8684;DHT22;4379;59.744;18.206;2022-08-03T14:05:04;25.00;99.90
8684;DHT22;4379;59.744;18.206;2022-08-03T14:07:32;25.10;99.90
8684;DHT22;4379;59.744;18.206;2022-08-03T14:10:00;25.30;99.90
8684;DHT22;4379;59.744;18.206;2022-08-03T14:12:28;25.50;99.90
8684;DHT22;4379;59.744;18.206;2022-08-03T14:14:57;25.70;99.90
8684;DHT22;4379;59.744;18.206;2022-08-03T14:17:27;25.60;99.90
8684;DHT22;4379;59.744;18.206;2022-08-03T14:20:15;25.60;99.90
8684;DHT22;4379;59.744;18.206;2022-08-03T14:23:02;24.90;99.90
8684;DHT22;4379;59.744;18.206;2022-08-03T14:25:29;25.10;99.90
8684;DHT22;4379;59.744;18.206;2022-08-03T14:28:16;25.10;99.90
8684;DHT22;4379;59.744;18.206;2022-08-03T14:30:44;25.30;99.90
8684;DHT22;4379;59.744;18.206;2022-08-03T14:33:11;25.40;99.90
8684;DHT22;4379;59.744;18.206;2022-08-03T14:35:39;25.60;99.90
8684;DHT22;4379;59.744;18.206;2022-08-03T14:38:06;25.80;99.90
8684;DHT22;4379;59.744;18.206;2022-08-03T14:40:34;25.40;99.90
8684;DHT22;4379;59.744;18.206;2022-08-03T14:43:01;25.50;99.90
8684;DHT22;4379;59.744;18.206;2022-08-03T14:45:29;25.60;99.90
8684;DHT22;4379;59.744;18.206;2022-08-03T14:47:56;25.60;99.90
8684;DHT22;4379;59.744;18.206;2022-08-03T14:50:46;24.90;99.90
8684;DHT22;4379;59.744;18.206;2022-08-03T14:53:18;24.50;99.90
8684;DHT22;4379;59.744;18.206;2022-08-03T14:55:46;24.20;99.90
8684;DHT22;4379;59.744;18.206;2022-08-03T14:58:21;24.40;99.90
8684;DHT22;4379;59.744;18.206;2022-08-03T15:00:50;24.40;99.90
8684;DHT22;4379;59.744;18.206;2022-08-03T15:03:19;24.50;99.90
8684;DHT22;4379;59.744;18.206;2022-08-03T15:05:55;24.10;99.90
8684;DHT22;4379;59.744;18.206;2022-08-03T15:08:24;24.10;99.90
8684;DHT22;4379;59.744;18.206;2022-08-03T15:10:53;23.90;99.90
8684;DHT22;4379;59.744;18.206;2022-08-03T15:13:20;23.80;99.90
8684;DHT22;4379;59.744;18.206;2022-08-03T15:15:48;23.80;99.90
8684;DHT22;4379;59.744;18.206;2022-08-03T15:18:16;23.90;99.90
8684;DHT22;4379;59.744;18.206;2022-08-03T15:20:43;23.70;99.90
8684;DHT22;4379;59.744;18.206;2022-08-03T15:23:14;23.70;99.90
8684;DHT22;4379;59.744;18.206;2022-08-03T15:25:43;23.60;99.90
8684;DHT22;4379;59.744;18.206;2022-08-03T15:28:31;23.60;99.90
8684;DHT22;4379;59.744;18.206;2022-08-03T15:30:59;23.70;99.90
8684;DHT22;4379;59.744;18.206;2022-08-03T15:33:27;23.70;99.90
8684;DHT22;4379;59.744;18.206;2022-08-03T15:35:55;23.90;99.90
8684;DHT22;4379;59.744;18.206;2022-08-03T15:38:23;23.90;99.90
8684;DHT22;4379;59.744;18.206;2022-08-03T15:40:53;24.00;99.90
8684;DHT22;4379;59.744;18.206;2022-08-03T15:43:22;24.00;99.90
8684;DHT22;4379;59.744;18.206;2022-08-03T15:45:50;24.10;99.90
8684;DHT22;4379;59.744;18.206;2022-08-03T15:48:38;24.20;99.90
8684;DHT22;4379;59.744;18.206;2022-08-03T15:51:06;24.20;99.90
8684;DHT22;4379;59.744;18.206;2022-08-03T15:53:34;23.80;99.90
8684;DHT22;4379;59.744;18.206;2022-08-03T15:56:02;23.60;99.90
8684;DHT22;4379;59.744;18.206;2022-08-03T15:58:38;23.50;99.90
8684;DHT22;4379;59.744;18.206;2022-08-03T16:01:25;23.50;99.90
8684;DHT22;4379;59.744;18.206;2022-08-03T16:03:53;23.40;99.90
8684;DHT22;4379;59.744;18.206;2022-08-03T16:06:21;23.30;99.90
8684;DHT22;4379;59.744;18.206;2022-08-03T16:09:05;23.20;99.90
8684;DHT22;4379;59.744;18.206;2022-08-03T16:11:53;23.10;99.90
8684;DHT22;4379;59.744;18.206;2022-08-03T16:14:21;23.20;99.90
8684;DHT22;4379;59.744;18.206;2022-08-03T16:17:02;23.20;99.90
8684;DHT22;4379;59.744;18.206;2022-08-03T16:19:29;23.40;99.90
8684;DHT22;4379;59.744;18.206;2022-08-03T16:21:57;23.50;99.90
8684;DHT22;4379;59.744;18.206;2022-08-03T16:24:25;23.60;99.90
8684;DHT22;4379;59.744;18.206;2022-08-03T16:26:54;23.70;99.90
8684;DHT22;4379;59.744;18.206;2022-08-03T16:29:22;23.70;99.90
8684;DHT22;4379;59.744;18.206;2022-08-03T16:31:50;23.80;99.90
8684;DHT22;4379;59.744;18.206;2022-08-03T16:34:19;23.90;99.90
8684;DHT22;4379;59.744;18.206;2022-08-03T16:36:47;23.80;99.90
8684;DHT22;4379;59.744;18.206;2022-08-03T16:39:14;23.90;99.90
8684;DHT22;4379;59.744;18.206;2022-08-03T16:41:42;23.80;99.90
8684;DHT22;4379;59.744;18.206;2022-08-03T16:44:27;23.70;99.90
8684;DHT22;4379;59.744;18.206;2022-08-03T16:46:56;23.60;99.90
8684;DHT22;4379;59.744;18.206;2022-08-03T16:49:24;23.30;99.90
8684;DHT22;4379;59.744;18.206;2022-08-03T16:52:11;23.20;99.90
8684;DHT22;4379;59.744;18.206;2022-08-03T16:54:39;23.10;99.90
8684;DHT22;4379;59.744;18.206;2022-08-03T16:57:06;23.10;99.90